Time;durP1;ratioP1;P1;durP2;ratioP2;P2;SDS_P1;SDS_P2;PMS_P1;PMS_P2;Temp;Humidity;BMP_temperature;BMP_pressure;BME280_temperature;BME280_humidity;BME280_pressure;Samples;Min_cycle;Max_cycle;Signal;HPM_P1;HPM_P2
2022/05/07 00:00:30;;;;;;;3.92;2.08;;;12.60;99.90;;;;;;5046931;28;20040;-71
2022/05/07 00:02:56;;;;;;;3.72;1.95;;;12.60;99.90;;;;;;5064232;28;20045;-71
2022/05/07 00:05:22;;;;;;;3.45;2.15;;;12.60;99.90;;;;;;5064311;28;20044;-71
2022/05/07 00:07:48;;;;;;;3.38;1.98;;;12.60;99.90;;;;;;5062093;28;20036;-71
2022/05/07 00:10:15;;;;;;;6.72;2.33;;;12.60;99.90;;;;;;5060973;28;20045;-71
2022/05/07 00:12:41;;;;;;;4.90;2.55;;;12.60;99.90;;;;;;5064330;28;20125;-71
2022/05/07 00:15:07;;;;;;;5.25;2.38;;;12.60;99.90;;;;;;5062897;28;20049;-71
2022/05/07 00:20:17;;;;;;;3.95;2.30;;;12.50;99.90;;;;;;5063531;28;20032;-71
2022/05/07 00:22:43;;;;;;;6.65;2.70;;;12.50;99.90;;;;;;5062894;28;20559;-71
2022/05/07 00:25:09;;;;;;;4.95;2.78;;;12.60;99.90;;;;;;5061645;28;20036;-71
2022/05/07 00:27:35;;;;;;;5.13;3.28;;;12.60;99.90;;;;;;5047681;28;20552;-71
2022/05/07 00:30:01;;;;;;;5.57;3.35;;;12.60;99.90;;;;;;5061757;28;20041;-71
2022/05/07 00:32:26;;;;;;;4.70;3.17;;;12.60;99.90;;;;;;5061529;28;20043;-71
2022/05/07 00:34:52;;;;;;;4.43;2.88;;;12.60;99.90;;;;;;5063335;28;20036;-71
2022/05/07 00:37:18;;;;;;;5.18;2.67;;;12.60;99.90;;;;;;5045102;28;20040;-71
2022/05/07 00:39:43;;;;;;;6.70;4.57;;;12.50;99.90;;;;;;5062213;28;20151;-71
2022/05/07 00:42:09;;;;;;;7.47;4.57;;;12.50;99.90;;;;;;5062969;28;20040;-70
2022/05/07 00:44:34;;;;;;;7.57;4.60;;;12.50;99.90;;;;;;5045586;28;20558;-71
2022/05/07 00:47:24;;;;;;;7.55;4.10;;;12.50;99.90;;;;;;5045856;28;20056;-70
2022/05/07 00:49:53;;;;;;;7.22;4.10;;;12.50;99.90;;;;;;5060338;28;20081;-70
2022/05/07 00:52:19;;;;;;;7.45;4.15;;;12.50;99.90;;;;;;5059610;28;20040;-71
2022/05/07 00:54:46;;;;;;;9.48;4.63;;;12.40;99.90;;;;;;5063790;28;20723;-71
2022/05/07 00:57:13;;;;;;;6.72;4.22;;;12.50;99.90;;;;;;5062866;28;20520;-70
2022/05/07 00:59:39;;;;;;;6.63;4.03;;;12.50;99.90;;;;;;5045168;28;20055;-71
2022/05/07 01:02:04;;;;;;;7.15;4.43;;;12.50;99.90;;;;;;5061566;28;20131;-71
2022/05/07 01:04:30;;;;;;;9.60;5.05;;;12.50;99.90;;;;;;5063391;28;20810;-71
2022/05/07 01:06:56;;;;;;;8.10;4.97;;;12.50;99.90;;;;;;5061624;28;20028;-70
2022/05/07 01:09:22;;;;;;;8.50;4.65;;;12.60;99.90;;;;;;5062487;28;20454;-71
2022/05/07 01:11:48;;;;;;;9.10;5.55;;;12.60;99.90;;;;;;5045520;28;20052;-71
2022/05/07 01:14:13;;;;;;;7.47;4.38;;;12.60;99.90;;;;;;5061729;28;20036;-71
2022/05/07 01:16:39;;;;;;;8.30;5.20;;;12.60;99.90;;;;;;5063238;28;20032;-71
2022/05/07 01:19:05;;;;;;;10.55;4.38;;;12.60;99.90;;;;;;5045588;28;20045;-70
2022/05/07 01:21:30;;;;;;;9.52;4.30;;;12.60;99.90;;;;;;5060297;28;20086;-71
2022/05/07 01:23:56;;;;;;;9.07;4.22;;;12.60;99.90;;;;;;5061474;28;20064;-71
2022/05/07 01:26:23;;;;;;;6.13;3.55;;;12.50;99.90;;;;;;5060005;28;20087;-71
2022/05/07 01:28:49;;;;;;;6.20;4.05;;;12.50;99.90;;;;;;5062011;28;20584;-71
2022/05/07 01:31:16;;;;;;;5.97;4.00;;;12.50;99.90;;;;;;5062689;28;20048;-71
2022/05/07 01:33:42;;;;;;;8.05;4.63;;;12.40;99.90;;;;;;5061777;28;20091;-70
2022/05/07 01:36:11;;;;;;;7.15;4.07;;;12.50;99.90;;;;;;5043608;28;20047;-71
2022/05/07 01:38:37;;;;;;;7.32;4.28;;;12.50;99.90;;;;;;5060173;28;20045;-71
2022/05/07 01:41:03;;;;;;;7.00;4.32;;;12.50;99.90;;;;;;5063127;28;20070;-71
2022/05/07 01:43:32;;;;;;;7.40;4.18;;;12.50;99.90;;;;;;5061475;28;20040;-71
2022/05/07 01:45:58;;;;;;;6.82;4.43;;;12.50;99.90;;;;;;5061844;28;20070;-71
2022/05/07 01:48:24;;;;;;;6.50;4.03;;;12.50;99.90;;;;;;5045185;28;20040;-71
2022/05/07 01:50:50;;;;;;;10.40;4.43;;;12.50;99.90;;;;;;5044494;28;20052;-71
2022/05/07 01:53:16;;;;;;;11.40;4.50;;;12.50;99.90;;;;;;5043452;28;20036;-71
2022/05/07 01:55:43;;;;;;;10.02;5.78;;;12.50;99.90;;;;;;5060140;28;20143;-71
2022/05/07 01:58:10;;;;;;;9.07;4.72;;;12.50;99.90;;;;;;5060832;28;20047;-70
2022/05/07 02:00:35;;;;;;;10.82;4.68;;;12.50;99.90;;;;;;5060362;28;20042;-71
2022/05/07 02:03:01;;;;;;;9.68;5.38;;;12.50;99.90;;;;;;5059343;28;20905;-71
2022/05/07 02:05:28;;;;;;;10.32;5.03;;;12.50;99.90;;;;;;5061770;28;20025;-70
2022/05/07 02:07:55;;;;;;;8.98;5.10;;;12.50;99.90;;;;;;5040602;28;20458;-71
2022/05/07 02:10:21;;;;;;;8.73;4.78;;;12.60;99.90;;;;;;5043491;28;20045;-71
2022/05/07 02:12:48;;;;;;;9.60;5.72;;;12.50;99.90;;;;;;5063082;28;20596;-71
2022/05/07 02:15:13;;;;;;;7.72;4.63;;;12.50;99.90;;;;;;5041203;28;20064;-70
2022/05/07 02:17:39;;;;;;;10.50;5.30;;;12.60;99.90;;;;;;5061732;28;20075;-71
2022/05/07 02:20:06;;;;;;;9.38;5.20;;;12.60;99.90;;;;;;5061960;28;20033;-71
2022/05/07 02:22:31;;;;;;;7.53;4.57;;;12.60;99.90;;;;;;5044471;28;22212;-71
2022/05/07 02:24:58;;;;;;;8.50;5.53;;;12.60;99.90;;;;;;5061272;28;20024;-71
2022/05/07 02:27:24;;;;;;;12.77;5.60;;;12.60;99.90;;;;;;5059803;28;20043;-71
2022/05/07 02:29:50;;;;;;;9.40;4.43;;;12.60;99.90;;;;;;5061629;28;20098;-71
2022/05/07 02:32:15;;;;;;;7.93;4.82;;;12.60;99.90;;;;;;5061400;28;20044;-71
2022/05/07 02:34:42;;;;;;;9.63;5.03;;;12.60;99.90;;;;;;5045152;28;20044;-71
2022/05/07 02:37:08;;;;;;;9.52;5.38;;;12.60;99.90;;;;;;5060769;28;20051;-71
2022/05/07 02:39:33;;;;;;;7.72;4.32;;;12.60;99.90;;;;;;5058810;28;20041;-71
2022/05/07 02:44:44;;;;;;;8.10;4.72;;;12.60;99.90;;;;;;5060268;28;20064;-71
2022/05/07 02:47:10;;;;;;;9.07;4.90;;;12.50;99.90;;;;;;5059834;28;20111;-70
2022/05/07 02:49:36;;;;;;;9.88;5.25;;;12.60;99.90;;;;;;5061107;28;20032;-71
2022/05/07 02:52:02;;;;;;;7.38;4.63;;;12.60;99.90;;;;;;5060178;28;20036;-71
2022/05/07 02:54:28;;;;;;;8.18;5.57;;;12.60;99.90;;;;;;5060512;28;20040;-71
2022/05/07 02:56:55;;;;;;;9.02;5.38;;;12.60;99.90;;;;;;5044108;28;20621;-71
2022/05/07 02:59:21;;;;;;;9.30;5.40;;;12.60;99.90;;;;;;5055725;28;20044;-71
2022/05/07 03:01:46;;;;;;;9.00;5.22;;;12.60;99.90;;;;;;5059555;28;20051;-71
2022/05/07 03:04:12;;;;;;;8.52;4.70;;;12.60;99.90;;;;;;5062851;28;20043;-71
2022/05/07 03:06:38;;;;;;;8.80;5.10;;;12.60;99.90;;;;;;5060606;28;20418;-71
2022/05/07 03:09:04;;;;;;;9.73;4.78;;;12.60;99.90;;;;;;5059896;28;20129;-71
2022/05/07 03:11:33;;;;;;;9.30;4.82;;;12.60;99.90;;;;;;5047721;28;20040;-71
2022/05/07 03:13:59;;;;;;;8.38;4.45;;;12.60;99.90;;;;;;5048002;28;20036;-71
2022/05/07 03:16:25;;;;;;;9.38;5.05;;;12.60;99.90;;;;;;5065315;28;20051;-71
2022/05/07 03:18:50;;;;;;;11.15;5.13;;;12.60;99.90;;;;;;5065181;28;20119;-71
2022/05/07 03:21:16;;;;;;;11.82;6.18;;;12.50;99.90;;;;;;5065214;28;20473;-71
2022/05/07 03:23:44;;;;;;;9.80;4.93;;;12.50;99.90;;;;;;5065539;28;20068;-71
2022/05/07 03:26:10;;;;;;;10.05;5.97;;;12.50;99.90;;;;;;5064198;28;20277;-71
2022/05/07 03:28:35;;;;;;;10.80;6.18;;;12.50;99.90;;;;;;5063139;28;20494;-71
2022/05/07 03:31:01;;;;;;;10.60;5.57;;;12.50;99.90;;;;;;5047301;28;20577;-71
2022/05/07 03:33:27;;;;;;;9.90;5.40;;;12.50;99.90;;;;;;5064367;28;20071;-71
2022/05/07 03:35:52;;;;;;;9.55;4.90;;;12.50;99.90;;;;;;5061327;28;20136;-71
2022/05/07 03:38:18;;;;;;;9.57;5.53;;;12.50;99.90;;;;;;5064374;28;20208;-71
2022/05/07 03:40:45;;;;;;;9.65;4.55;;;12.50;99.90;;;;;;5064881;28;20124;-71
2022/05/07 03:43:10;;;;;;;11.13;4.80;;;12.50;99.90;;;;;;5063586;28;20037;-71
2022/05/07 03:45:36;;;;;;;8.20;5.13;;;12.50;99.90;;;;;;5064391;28;20070;-71
2022/05/07 03:48:02;;;;;;;9.60;5.03;;;12.50;99.90;;;;;;5060186;28;20047;-71
2022/05/07 03:50:27;;;;;;;11.23;5.95;;;12.40;99.90;;;;;;5064641;28;20505;-71
2022/05/07 03:55:43;;;;;;;8.50;5.00;;;12.50;99.90;;;;;;5060296;28;20048;-71
2022/05/07 03:58:15;;;;;;;9.38;5.35;;;12.50;99.90;;;;;;5062557;28;20040;-71
2022/05/07 04:00:44;;;;;;;9.82;4.93;;;12.50;99.90;;;;;;5045527;28;20040;-71
2022/05/07 04:03:12;;;;;;;10.45;5.18;;;12.50;99.90;;;;;;5062278;28;20033;-71
2022/05/07 04:05:38;;;;;;;10.57;6.00;;;12.50;99.90;;;;;;5064593;28;20042;-71
2022/05/07 04:08:04;;;;;;;15.15;6.30;;;12.50;99.90;;;;;;5058950;28;20040;-71
2022/05/07 04:10:30;;;;;;;10.38;5.97;;;12.50;99.90;;;;;;5062686;28;20067;-71
2022/05/07 04:12:55;;;;;;;10.55;6.32;;;12.40;99.90;;;;;;5062084;28;20035;-71
2022/05/07 04:15:22;;;;;;;11.00;6.30;;;12.50;99.90;;;;;;5045648;28;20052;-71
2022/05/07 04:17:48;;;;;;;9.70;5.82;;;12.50;99.90;;;;;;5063314;28;20040;-71
2022/05/07 04:20:14;;;;;;;10.57;5.82;;;12.50;99.90;;;;;;5063841;28;20040;-71
2022/05/07 04:22:40;;;;;;;12.98;5.88;;;12.50;99.90;;;;;;5061720;28;20375;-71
2022/05/07 04:25:07;;;;;;;9.57;5.10;;;12.50;99.90;;;;;;5063917;28;20044;-71
2022/05/07 04:27:32;;;;;;;11.73;5.93;;;12.50;99.90;;;;;;5062681;28;20367;-71
2022/05/07 04:29:58;;;;;;;10.35;5.07;;;12.50;99.90;;;;;;5061847;28;20066;-71
2022/05/07 04:32:24;;;;;;;11.48;6.07;;;12.50;99.90;;;;;;5063694;28;20496;-71
2022/05/07 04:34:50;;;;;;;10.23;6.07;;;12.50;99.90;;;;;;5058543;28;20086;-71
2022/05/07 04:37:16;;;;;;;10.93;6.05;;;12.50;99.90;;;;;;5062079;28;20417;-71
2022/05/07 04:39:42;;;;;;;8.35;4.90;;;12.50;99.90;;;;;;5062829;28;20037;-71
2022/05/07 04:42:08;;;;;;;9.40;5.43;;;12.50;99.90;;;;;;5063367;28;20067;-71
2022/05/07 04:44:33;;;;;;;8.00;4.45;;;12.50;99.90;;;;;;5063315;28;20584;-71
2022/05/07 04:46:59;;;;;;;10.70;5.80;;;12.50;99.90;;;;;;5061929;28;20032;-71
2022/05/07 04:49:25;;;;;;;10.00;5.13;;;12.50;99.90;;;;;;5059718;28;20044;-71
2022/05/07 04:51:51;;;;;;;10.30;5.70;;;12.50;99.90;;;;;;5045009;28;20047;-71
2022/05/07 04:54:20;;;;;;;10.43;5.05;;;12.60;99.90;;;;;;5063107;28;20129;-71
2022/05/07 04:56:47;;;;;;;11.95;5.53;;;12.60;99.90;;;;;;5044948;28;20041;-71
2022/05/07 04:59:13;;;;;;;10.32;4.78;;;12.60;99.90;;;;;;5061796;28;20036;-71
2022/05/07 05:01:39;;;;;;;10.10;5.40;;;12.60;99.90;;;;;;5063726;28;20032;-71
2022/05/07 05:04:05;;;;;;;10.00;5.22;;;12.60;99.90;;;;;;5062024;28;20036;-71
2022/05/07 05:06:30;;;;;;;9.52;5.75;;;12.70;99.90;;;;;;5064984;28;20588;-71
2022/05/07 05:08:56;;;;;;;10.40;5.40;;;12.60;99.90;;;;;;5061520;28;20071;-71
2022/05/07 05:11:22;;;;;;;9.75;5.57;;;12.60;99.90;;;;;;5062769;28;20056;-71
2022/05/07 05:13:47;;;;;;;8.55;5.38;;;12.60;99.90;;;;;;5058937;28;20044;-71
2022/05/07 05:16:13;;;;;;;13.05;5.68;;;12.60;99.90;;;;;;5062575;28;20044;-71
2022/05/07 05:18:38;;;;;;;8.88;4.95;;;12.60;99.90;;;;;;5063079;28;20040;-71
2022/05/07 05:21:04;;;;;;;8.65;5.20;;;12.60;99.90;;;;;;5045876;28;20036;-71
2022/05/07 05:23:30;;;;;;;9.43;4.63;;;12.60;99.90;;;;;;5062552;28;20390;-71
2022/05/07 05:25:56;;;;;;;11.63;5.82;;;12.60;99.90;;;;;;5062796;28;20033;-71
2022/05/07 05:28:22;;;;;;;10.68;5.65;;;12.60;99.90;;;;;;5060636;28;20186;-70
2022/05/07 05:30:51;;;;;;;9.27;5.20;;;12.60;99.90;;;;;;5061011;28;20040;-71
2022/05/07 05:33:20;;;;;;;12.15;6.28;;;12.70;99.90;;;;;;5060376;28;20033;-71
2022/05/07 05:35:46;;;;;;;9.95;5.53;;;12.70;99.90;;;;;;5062726;28;20048;-71
2022/05/07 05:38:12;;;;;;;11.13;5.40;;;12.70;99.90;;;;;;5062998;28;20053;-71
2022/05/07 05:40:37;;;;;;;9.13;5.28;;;12.70;99.90;;;;;;5060498;28;20048;-71
2022/05/07 05:43:03;;;;;;;11.57;5.93;;;12.70;99.90;;;;;;5057466;28;20040;-71
2022/05/07 05:45:29;;;;;;;9.13;5.05;;;12.70;99.90;;;;;;5045154;28;20444;-71
2022/05/07 05:47:54;;;;;;;11.70;5.45;;;12.80;99.90;;;;;;5061409;28;20510;-71
2022/05/07 05:50:20;;;;;;;9.68;5.85;;;12.80;99.90;;;;;;5044923;28;20123;-71
2022/05/07 05:52:46;;;;;;;11.80;6.45;;;12.80;99.90;;;;;;5044468;28;20033;-71
2022/05/07 05:55:12;;;;;;;8.75;5.05;;;12.80;99.90;;;;;;5060198;28;20805;-70
2022/05/07 05:57:37;;;;;;;8.02;4.50;;;12.90;99.90;;;;;;5044257;28;20486;-71
2022/05/07 06:00:07;;;;;;;8.55;5.38;;;12.90;99.90;;;;;;5057938;28;20061;-71
2022/05/07 06:02:33;;;;;;;9.40;6.22;;;12.90;99.90;;;;;;5046120;28;20035;-71
2022/05/07 06:04:58;;;;;;;13.73;6.20;;;12.90;99.90;;;;;;5055971;28;20044;-71
2022/05/07 06:07:24;;;;;;;9.75;5.90;;;13.00;99.90;;;;;;5062582;28;20041;-71
2022/05/07 06:09:49;;;;;;;10.38;6.25;;;13.10;99.90;;;;;;5061186;28;20040;-71
2022/05/07 06:12:15;;;;;;;9.38;5.30;;;13.10;99.90;;;;;;5061670;28;20044;-71
2022/05/07 06:14:41;;;;;;;9.90;5.53;;;13.20;99.90;;;;;;5058269;28;20044;-71
2022/05/07 06:17:07;;;;;;;8.55;5.35;;;13.30;99.90;;;;;;5060002;28;20533;-71
2022/05/07 06:19:32;;;;;;;9.85;6.07;;;13.40;99.90;;;;;;5043802;28;20083;-71
2022/05/07 06:21:58;;;;;;;10.95;6.72;;;13.50;99.90;;;;;;5059308;28;20505;-71
2022/05/07 06:30:09;;;;;;;9.85;5.63;;;13.80;99.90;;;;;;4963671;28;20046;-71
2022/05/07 06:32:41;;;;;;;9.48;5.88;;;13.90;99.90;;;;;;5039288;28;20398;-71
2022/05/07 06:35:08;;;;;;;11.25;5.60;;;13.90;99.90;;;;;;5039176;28;21151;-71
2022/05/07 06:37:35;;;;;;;8.18;4.55;;;14.00;99.90;;;;;;5058189;28;20067;-71
2022/05/07 06:40:03;;;;;;;9.15;5.22;;;14.00;99.90;;;;;;5057589;28;20052;-71
2022/05/07 06:42:29;;;;;;;9.30;4.80;;;14.10;99.90;;;;;;5060831;28;20033;-71
2022/05/07 06:44:54;;;;;;;9.90;5.90;;;14.20;99.90;;;;;;5057982;28;20043;-71
2022/05/07 06:47:20;;;;;;;7.75;5.25;;;14.30;99.90;;;;;;5047499;28;20040;-71
2022/05/07 06:49:45;;;;;;;9.98;4.75;;;14.30;99.90;;;;;;5047670;28;20041;-71
2022/05/07 06:52:11;;;;;;;10.02;5.53;;;14.30;99.90;;;;;;5065748;28;20036;-71
2022/05/07 06:54:37;;;;;;;9.85;5.82;;;14.40;99.90;;;;;;5063126;28;20063;-71
2022/05/07 06:57:03;;;;;;;10.18;5.82;;;14.40;99.90;;;;;;5063575;28;20563;-71
2022/05/07 06:59:30;;;;;;;9.38;5.53;;;14.40;99.90;;;;;;5060804;28;20486;-71
2022/05/07 07:01:55;;;;;;;9.75;5.78;;;14.40;99.90;;;;;;5060810;28;20029;-71
2022/05/07 07:04:21;;;;;;;10.98;6.18;;;14.50;99.90;;;;;;5065907;28;20429;-70
2022/05/07 07:06:49;;;;;;;10.35;5.65;;;14.50;99.90;;;;;;5059837;28;20379;-71
2022/05/07 07:09:14;;;;;;;11.35;6.40;;;14.50;99.90;;;;;;5067303;28;20472;-70
2022/05/07 07:11:40;;;;;;;12.43;5.85;;;14.50;99.90;;;;;;5064975;28;20036;-71
2022/05/07 07:14:06;;;;;;;9.60;5.50;;;14.50;99.90;;;;;;5064865;28;20045;-70
2022/05/07 07:16:31;;;;;;;10.98;6.43;;;14.50;99.90;;;;;;5072896;28;20040;-70
2022/05/07 07:18:57;;;;;;;9.98;6.05;;;14.60;99.90;;;;;;5073082;28;20045;-71
2022/05/07 07:21:22;;;;;;;9.65;5.28;;;14.60;99.90;;;;;;5073533;28;20067;-71
2022/05/07 07:23:48;;;;;;;9.57;5.57;;;14.60;99.90;;;;;;5056181;28;20127;-71
2022/05/07 07:26:14;;;;;;;8.23;5.00;;;14.60;99.90;;;;;;5073547;28;20040;-70
2022/05/07 07:28:40;;;;;;;7.90;4.78;;;14.60;99.90;;;;;;5055101;28;20390;-70
2022/05/07 07:31:08;;;;;;;7.10;4.65;;;14.70;99.90;;;;;;5071776;28;20047;-70
2022/05/07 07:33:34;;;;;;;8.63;4.70;;;14.70;99.90;;;;;;5068543;28;20055;-71
2022/05/07 07:36:00;;;;;;;9.95;5.00;;;14.70;99.90;;;;;;5055443;28;20040;-70
2022/05/07 07:38:26;;;;;;;10.95;5.25;;;14.90;99.90;;;;;;5072296;28;20163;-71
2022/05/07 07:40:52;;;;;;;11.48;5.72;;;14.90;99.90;;;;;;5070677;28;20036;-71
2022/05/07 07:43:18;;;;;;;10.50;5.15;;;14.90;99.90;;;;;;5071103;28;20526;-70
2022/05/07 07:48:30;;;;;;;8.65;4.43;;;15.00;99.90;;;;;;5070363;28;20052;-71
2022/05/07 07:50:56;;;;;;;7.45;3.25;;;15.10;99.90;;;;;;5071654;28;20036;-71
2022/05/07 07:53:24;;;;;;;8.85;4.25;;;15.20;99.90;;;;;;5072792;28;20044;-71
2022/05/07 07:55:51;;;;;;;9.00;4.05;;;15.10;99.90;;;;;;5056091;28;20044;-71
2022/05/07 07:58:17;;;;;;;8.13;4.07;;;15.20;99.90;;;;;;5049567;28;20048;-71
2022/05/07 08:00:44;;;;;;;6.35;3.92;;;15.30;99.90;;;;;;5058115;28;20036;-71
2022/05/07 08:03:12;;;;;;;9.52;4.57;;;15.30;99.90;;;;;;5066613;28;20397;-71
2022/05/07 08:05:40;;;;;;;6.85;3.67;;;15.30;99.90;;;;;;5063366;28;20486;-70
2022/05/07 08:13:38;;;;;;;6.70;3.53;;;15.40;99.90;;;;;;5060387;28;20090;-71
2022/05/07 08:16:04;;;;;;;7.60;4.18;;;15.40;99.90;;;;;;5062224;28;20765;-71
2022/05/07 08:18:31;;;;;;;6.55;3.55;;;15.40;99.90;;;;;;5047313;28;20047;-70
2022/05/07 08:20:57;;;;;;;6.90;3.40;;;15.40;99.90;;;;;;5062378;28;20032;-70
2022/05/07 08:23:23;;;;;;;8.30;4.00;;;15.50;99.90;;;;;;5058457;28;20194;-71
2022/05/07 08:25:49;;;;;;;8.10;3.92;;;15.60;99.90;;;;;;5065231;28;20125;-71
2022/05/07 08:28:17;;;;;;;8.85;4.13;;;15.60;99.90;;;;;;5060996;28;20551;-71
2022/05/07 08:30:44;;;;;;;8.98;5.13;;;15.60;99.90;;;;;;5065413;28;20054;-70
2022/05/07 08:33:10;;;;;;;8.50;4.65;;;15.50;99.90;;;;;;5066330;28;20043;-71
2022/05/07 08:35:36;;;;;;;7.68;4.30;;;15.50;99.90;;;;;;5068268;28;20517;-71
2022/05/07 08:38:01;;;;;;;8.10;3.85;;;15.50;99.90;;;;;;5062943;28;20048;-71
2022/05/07 08:40:28;;;;;;;8.90;4.97;;;15.50;99.90;;;;;;5064203;28;20494;-71
2022/05/07 08:42:54;;;;;;;9.13;4.90;;;15.50;99.90;;;;;;5060969;28;20044;-71
2022/05/07 08:45:20;;;;;;;9.07;5.10;;;15.50;99.90;;;;;;5062673;28;20029;-71
2022/05/07 08:47:46;;;;;;;9.27;4.65;;;15.50;99.90;;;;;;5046303;28;20086;-71
2022/05/07 08:50:14;;;;;;;9.90;5.03;;;15.50;99.90;;;;;;5063011;28;20044;-71
2022/05/07 08:52:42;;;;;;;8.43;4.47;;;15.50;99.90;;;;;;5058702;28;20406;-70
2022/05/07 08:55:17;;;;;;;11.88;5.45;;;15.50;99.90;;;;;;5061115;28;20073;-71
2022/05/07 08:57:45;;;;;;;9.17;5.00;;;15.50;99.90;;;;;;5062385;28;20048;-71
2022/05/07 09:00:13;;;;;;;8.85;5.72;;;15.60;99.90;;;;;;5057118;28;20291;-71
2022/05/07 09:02:51;;;;;;;10.07;6.10;;;15.60;99.90;;;;;;5060402;28;20052;-71
2022/05/07 09:05:19;;;;;;;14.13;5.65;;;15.60;99.90;;;;;;5046005;28;20040;-71
2022/05/07 09:07:54;;;;;;;8.75;4.78;;;15.60;99.90;;;;;;5060787;28;20036;-71
2022/05/07 09:10:23;;;;;;;;;;;15.60;99.90;;;;;;5059205;28;20045;-71
2022/05/07 09:12:49;;;;;;;12.55;5.53;;;15.80;99.90;;;;;;5053769;28;19920;-71
2022/05/07 09:15:14;;;;;;;9.25;4.80;;;15.80;99.90;;;;;;5060701;28;20383;-71
2022/05/07 09:17:40;;;;;;;10.23;5.38;;;15.90;99.90;;;;;;5054657;28;20071;-71
2022/05/07 09:20:18;;;;;;;11.90;5.75;;;15.90;99.90;;;;;;5040971;28;20070;-70
2022/05/07 09:22:55;;;;;;;8.85;4.35;;;15.90;99.90;;;;;;5054580;28;20461;-71
2022/05/07 09:25:28;;;;;;;8.43;4.40;;;16.00;99.90;;;;;;5038771;28;20040;-71
2022/05/07 09:27:58;;;;;;;10.45;5.43;;;16.00;99.90;;;;;;5075237;28;20052;-71
2022/05/07 09:30:28;;;;;;;6.60;3.70;;;16.10;99.90;;;;;;5058738;28;20036;-71
2022/05/07 09:32:55;;;;;;;11.05;5.75;;;16.20;99.90;;;;;;5054337;28;20040;-71
2022/05/07 09:38:14;;;;;;;9.95;5.35;;;16.30;99.90;;;;;;5059590;28;20052;-71
2022/05/07 09:40:42;;;;;;;9.90;5.18;;;16.40;99.90;;;;;;5059284;28;20047;-71
2022/05/07 09:43:12;;;;;;;9.52;5.03;;;16.50;99.90;;;;;;5057930;28;20538;-71
2022/05/07 09:45:39;;;;;;;9.77;5.80;;;16.50;99.90;;;;;;5044680;28;20899;-71
2022/05/07 09:48:06;;;;;;;8.98;4.88;;;16.60;99.90;;;;;;5060641;28;20283;-71
2022/05/07 09:58:37;;;;;;;9.45;5.47;;;16.70;99.90;;;;;;5061276;28;20393;-70
2022/05/07 10:01:20;;;;;;;10.68;5.88;;;16.70;99.90;;;;;;5062836;28;20040;-71
2022/05/07 10:04:23;;;;;;;12.00;6.10;;;16.70;99.90;;;;;;5060454;28;20908;-71
2022/05/07 10:07:07;;;;;;;12.77;6.70;;;16.70;99.90;;;;;;5053197;28;20111;-71
2022/05/07 10:09:54;;;;;;;11.10;5.55;;;16.80;99.90;;;;;;5058204;28;20044;-71
2022/05/07 10:12:22;;;;;;;12.35;5.65;;;16.80;99.90;;;;;;5040683;28;20079;-71
2022/05/07 10:14:48;;;;;;;9.80;5.45;;;16.80;99.90;;;;;;5056713;28;20048;-70
2022/05/07 10:17:15;;;;;;;13.38;6.07;;;16.90;99.90;;;;;;5054026;28;20047;-71
2022/05/07 10:19:45;;;;;;;11.73;5.63;;;16.90;99.90;;;;;;5055083;28;20048;-71
2022/05/07 10:22:16;;;;;;;13.45;6.03;;;16.90;99.90;;;;;;5054917;28;20032;-71
2022/05/07 10:24:43;;;;;;;13.23;5.78;;;16.80;99.90;;;;;;5042302;28;20041;-71
2022/05/07 10:27:22;;;;;;;10.77;5.80;;;17.00;99.90;;;;;;5041874;28;20050;-72
2022/05/07 10:29:48;;;;;;;10.95;5.93;;;17.10;99.90;;;;;;5036289;28;20135;-71
2022/05/07 10:32:18;;;;;;;12.43;6.13;;;17.10;99.90;;;;;;5059599;28;20082;-71
2022/05/07 10:34:52;;;;;;;12.80;5.95;;;17.10;99.90;;;;;;5060291;28;20036;-71
2022/05/07 10:37:17;;;;;;;8.40;5.25;;;17.10;99.90;;;;;;5055623;28;20390;-70
2022/05/07 10:39:51;;;;;;;10.82;5.70;;;17.20;99.90;;;;;;5042431;28;20032;-71
2022/05/07 10:42:18;;;;;;;11.15;5.25;;;17.10;99.90;;;;;;5058552;28;20375;-71
2022/05/07 10:44:43;;;;;;;10.70;4.78;;;17.20;99.90;;;;;;5058245;28;20036;-71
2022/05/07 10:47:15;;;;;;;9.13;4.32;;;17.20;99.90;;;;;;5056956;28;20044;-71
2022/05/07 10:49:56;;;;;;;11.95;5.60;;;17.20;99.90;;;;;;5056886;28;20044;-71
2022/05/07 10:52:35;;;;;;;9.38;5.07;;;17.20;98.90;;;;;;5058502;28;20047;-71
2022/05/07 10:55:12;;;;;;;10.32;4.97;;;17.20;99.90;;;;;;5059820;28;20036;-71
2022/05/07 10:57:47;;;;;;;8.85;4.70;;;17.30;96.50;;;;;;5057660;28;20091;-71
2022/05/07 11:00:14;;;;;;;9.25;5.07;;;17.30;99.30;;;;;;5057730;28;20094;-71
2022/05/07 11:02:40;;;;;;;8.50;4.60;;;17.40;99.00;;;;;;5058119;28;20047;-71
2022/05/07 11:05:06;;;;;;;9.85;4.97;;;17.40;99.40;;;;;;5058705;28;21000;-71
2022/05/07 11:07:32;;;;;;;9.73;4.97;;;17.40;99.20;;;;;;5060578;28;20512;-71
2022/05/07 11:09:58;;;;;;;9.20;5.10;;;17.50;99.20;;;;;;5039861;28;20040;-71
2022/05/07 11:12:26;;;;;;;8.48;4.45;;;17.50;98.40;;;;;;5058302;28;20072;-71
2022/05/07 11:14:52;;;;;;;7.80;4.85;;;17.50;98.10;;;;;;5057740;28;20044;-71
2022/05/07 11:17:30;;;;;;;6.50;4.43;;;17.50;98.70;;;;;;5073301;28;20047;-70
2022/05/07 11:19:57;;;;;;;11.50;5.28;;;17.60;96.80;;;;;;5052840;28;20052;-70
2022/05/07 11:22:32;;;;;;;11.60;4.65;;;17.60;98.00;;;;;;5057186;28;20397;-71
2022/05/07 11:25:02;;;;;;;;;;;17.70;95.80;;;;;;5056592;28;21744;-71
2022/05/07 11:27:34;;;;;;;9.18;4.85;;;17.70;93.50;;;;;;5036461;28;20373;-71
2022/05/07 11:30:01;;;;;;;9.60;4.80;;;17.70;97.30;;;;;;5058958;28;20134;-71
2022/05/07 11:32:41;;;;;;;11.48;5.32;;;17.70;97.00;;;;;;5046857;28;20120;-71
2022/05/07 11:35:08;;;;;;;10.57;5.45;;;17.70;95.60;;;;;;5047238;28;20127;-71
2022/05/07 11:37:40;;;;;;;11.52;5.25;;;17.70;97.10;;;;;;5060769;28;20045;-71
2022/05/07 11:40:06;;;;;;;8.55;4.32;;;17.80;96.60;;;;;;5060890;28;20055;-71
2022/05/07 11:42:43;;;;;;;11.00;5.85;;;17.90;96.80;;;;;;5062645;28;20420;-71
2022/05/07 11:45:31;;;;;;;7.85;3.92;;;17.90;95.20;;;;;;5043640;28;20078;-71
2022/05/07 11:48:11;;;;;;;9.13;4.97;;;17.90;95.00;;;;;;5059078;28;20046;-71
2022/05/07 11:50:41;;;;;;;8.13;4.60;;;18.00;95.80;;;;;;5045193;28;20040;-70
2022/05/07 11:53:11;;;;;;;11.40;4.97;;;18.00;95.60;;;;;;5059764;28;20553;-71
2022/05/07 11:55:37;;;;;;;8.35;4.97;;;18.10;95.50;;;;;;5062695;28;20052;-71
2022/05/07 11:58:20;;;;;;;10.40;5.85;;;18.10;95.60;;;;;;5059362;28;20082;-71
2022/05/07 12:00:47;;;;;;;10.52;5.93;;;18.10;95.30;;;;;;5062003;28;20225;-71
2022/05/07 12:03:17;;;;;;;10.52;6.38;;;18.10;96.20;;;;;;5057988;28;20040;-71
2022/05/07 12:05:51;;;;;;;11.98;6.88;;;18.10;95.20;;;;;;5047712;28;20452;-71
2022/05/07 12:08:23;;;;;;;12.73;6.75;;;18.10;95.90;;;;;;5062366;28;20052;-71
2022/05/07 12:10:50;;;;;;;12.27;6.75;;;18.10;96.40;;;;;;5063086;28;20036;-71
2022/05/07 12:13:17;;;;;;;12.35;6.13;;;18.10;96.40;;;;;;5045837;28;20115;-71
2022/05/07 12:18:30;;;;;;;12.60;6.28;;;18.00;96.60;;;;;;5058164;28;20044;-71
2022/05/07 12:20:57;;;;;;;13.05;6.75;;;18.00;96.70;;;;;;5061139;28;20115;-71
2022/05/07 12:31:36;;;;;;;13.00;6.00;;;17.90;96.50;;;;;;5065626;28;20143;-71
2022/05/07 12:34:02;;;;;;;9.32;5.20;;;17.90;96.40;;;;;;5065628;28;20051;-71
2022/05/07 12:36:28;;;;;;;13.55;6.15;;;17.90;95.90;;;;;;5064472;28;20076;-71
2022/05/07 12:38:54;;;;;;;11.70;6.32;;;17.90;95.90;;;;;;5065850;28;20044;-71
2022/05/07 12:41:20;;;;;;;12.75;6.15;;;17.90;96.40;;;;;;5045607;28;20128;-71
2022/05/07 12:43:45;;;;;;;11.20;6.65;;;18.00;96.10;;;;;;5063925;28;20818;-71
2022/05/07 12:46:11;;;;;;;13.15;6.85;;;18.00;96.10;;;;;;5066504;28;20041;-71
2022/05/07 12:48:37;;;;;;;14.25;6.38;;;18.10;96.00;;;;;;5066110;28;20482;-71
2022/05/07 12:51:02;;;;;;;13.93;7.35;;;18.10;95.60;;;;;;5064941;28;20139;-71
2022/05/07 12:53:28;;;;;;;12.27;6.50;;;18.00;95.90;;;;;;5067044;28;20037;-71
2022/05/07 12:55:54;;;;;;;13.25;6.97;;;17.90;96.10;;;;;;5064106;28;20123;-71
2022/05/07 12:58:19;;;;;;;14.52;7.00;;;17.80;96.40;;;;;;5064322;28;20036;-71
2022/05/07 13:00:45;;;;;;;13.07;6.15;;;17.80;96.70;;;;;;5062592;28;20040;-71
2022/05/07 13:03:11;;;;;;;13.02;6.75;;;17.80;96.90;;;;;;5048646;28;20035;-71
2022/05/07 13:05:38;;;;;;;13.00;7.05;;;17.80;96.50;;;;;;5062505;28;20554;-71
2022/05/07 13:08:05;;;;;;;12.57;6.43;;;17.80;96.60;;;;;;5062414;28;20485;-71
2022/05/07 13:10:32;;;;;;;13.65;6.32;;;17.80;96.40;;;;;;5062467;28;20041;-71
2022/05/07 13:12:59;;;;;;;12.52;6.15;;;17.80;96.50;;;;;;5059371;28;20037;-71
2022/05/07 13:15:31;;;;;;;9.00;5.18;;;17.80;96.70;;;;;;5061861;28;20416;-71
2022/05/07 13:17:57;;;;;;;11.75;5.97;;;17.80;96.70;;;;;;5061653;28;20123;-71
2022/05/07 13:20:24;;;;;;;8.95;4.68;;;17.80;96.60;;;;;;5060314;28;20062;-71
2022/05/07 13:22:49;;;;;;;10.55;5.93;;;17.80;96.60;;;;;;5061539;28;20052;-72
2022/05/07 13:25:15;;;;;;;15.05;5.78;;;17.70;96.70;;;;;;5044038;28;20681;-71
2022/05/07 13:27:40;;;;;;;11.18;5.55;;;17.70;96.90;;;;;;5061608;28;20616;-71